Chef Menteur, Louisiana
Current Conditions -  °F | °C
As of 2:53 PM on Saturday 22 Nov 2014 (Local Time) from KNEW Reporting Station
Broken Clouds Broken Clouds  
Wind Chill: 64°   Ceiling: 2200
Heat Index: 64°   Visibility: 9mi
Dew Point: 58°   Wind: 12mph
Humidity: 80%   Direction: 80°E
Pressure: 30.07"   Gusts: NA
Location:  29.9961°N, 90.0035°W
Report Text: KNEW 222053Z 08010KT 9SM BKN022 18/14 A3007 RMK AO2 SLP176 T01780144 55028
Loading
Personal Weather Stations






























Interactive Weather Map New forecast layout! Learn more

10-Day Weather Forecast

Advertisements
Track Severe Weather on mobile